Главная страница
METAR-TAF:

METAR-TAF

Аэропорты :

Элиста, Россия

широта: 46-22N, долгота: 044-20E, высота над уровнем моря: 150 м

Текущие метеонаблюдения

Эта сводка был подготовлена 46 минут назад, в 19:00 UTC
Ветер 2 Узел от северный
Температура 16°C
Влажность 63%
Давление 1026 hPa
Видимость 10 км и более

METAR: URWI 151900Z AUTO 01001MPS 9999 // ///044/// 16/09 Q1026

Время: 22:46 (19:46 UTC)

Прогноз

Эта сводка был подготовлена 8 часа и 46 минут назад, в 11:00 UTC
Прогноз действительный с 15-го 12 UTC до 15-го 21 UTC
Ветер 12 Узел от северо-западный с порывами до 23 Узел
Видимость 10 км и более
Отдельные облака на высоте 3000 фута
временами
С 15-го 12 UTC до 15-го 21 UTC
Ветер 6 Узел от северный с порывами до 16 Узел

TAF: URWI 151100Z 1512/1521 31006G12MPS 9999 SCT030 TEMPO 1512/1521 01003G08MPS

Метеонаблюдения и прогнозы для более 4000 аэропортов (сводки METAR и TAF).

Имеющиеся станции представлены на карте желтыми и красными точками.

Чтобы увидеть название станции, наведите на нее мышь.

Затем щелкните, чтобы увидеть метеонаблюдения и метеопрогнозы.

Управление картой: чтобы увеличить масштаб, щелкните зеленые кнопки с черным крестиком; чтобы уменьшить масштаб, щелкните зеленую кнопку с тире; для просмотра соседних карт щелкайте зеленые стрелки.


METAR-TAF: